Aeroporto :







RITROVATECI SU...

 
LOGIN :

Iscrizione | Disclaimer

   EN    FR    IT 

 









Sommario :    VFR   VFR Marginale   IFR   IFR Intensivo   IFR Molto Intensivo
Visibilità : 
Base nubi : 
>= 8 km
>= 3000ft
5 / 8 km
1000 / 3000 ft
1500m / 5 km
500 / 1000 ft
800 / 1500m
200 / 500 ft
< 800m
< 200 ft
Simboli :   Temporali  Nebbia  Neve Forte  Precipitazioni Forti  Vento > 20 kt






- Altitudine del aeroporto : 11 ft


KGHG - Marshfield Municipal George Harlow Field

ULTIMO METAR :
  • 191855Z AUTO VRB06G13KT 10SM CLR 15/M01 A3030 RMK AO2

METARs OBSOLETI :
  • 191835Z AUTO 05008G16KT 020V080 10SM CLR 15/M00 A3031 RMK AO2
  • 191815Z AUTO VRB06G14KT 10SM CLR 15/01 A3031 RMK AO2
  • 191755Z AUTO VRB04G13KT 8SM CLR 15/01 A3031 RMK AO2
  • 191735Z AUTO 03007G13KT 320V070 10SM CLR 15/01 A3030 RMK AO2
  • 191715Z AUTO 03008G16KT 340V060 10SM CLR 15/02 A3030 RMK AO2
  • 191655Z AUTO VRB06G15KT 10SM CLR 15/03 A3030 RMK AO2
  • 191635Z AUTO 36007G14KT 320V060 10SM CLR 16/04 A3031 RMK AO2
  • 191615Z AUTO VRB06G16KT 10SM CLR 16/04 A3031 RMK AO2

TAF N/A
FIR KZBW / America del Nord



MetMap, La meteo Aeronautica in un colpo d'occhio ! - Copyright ORBIFLY Dicembre 2007 - Disclaimer

ORBIFLY MET'MAP TEAM :

Programmazione e sviluppo : Alexandra Zaïnal
Concezione : Baudouin d'Aumeries
Aiuto per la programmazione : Marc-Olivier Méhu
Supporto tecnico e logistico : Manuel Goepfert
Aiuto per la traduzione : Arnaldo La Scala

Contatto : metmap@orbifly.com




FONTI E CREDITI :

   NOAA